Time;durP1;ratioP1;P1;durP2;ratioP2;P2;SDS_P1;SDS_P2;PMS_P1;PMS_P2;Temp;Humidity;BMP_temperature;BMP_pressure;BME280_temperature;BME280_humidity;BME280_pressure;Samples;Min_cycle;Max_cycle;Signal;HPM_P1;HPM_P2
2022/12/21 00:02:47;;;;;;;62.47;24.03;;;;;2.30;96269.00;;;;8366972;28;20216;-70
2022/12/21 00:11:32;;;;;;;78.37;24.13;;;;;2.30;96265.00;;;;8359558;28;20241;-70
2022/12/21 00:16:15;;;;;;;70.77;23.43;;;;;2.30;96260.00;;;;8364891;28;20656;-71
2022/12/21 00:20:18;;;;;;;69.57;23.47;;;;;2.30;96242.00;;;;8366702;28;20568;-70
2022/12/21 00:24:23;;;;;;;77.60;23.23;;;;;2.30;96232.00;;;;8366585;28;20207;-71
2022/12/21 00:28:28;;;;;;;71.87;24.17;;;;;2.30;96246.00;;;;8365934;28;20213;-71
2022/12/21 00:33:02;;;;;;;66.63;22.60;;;;;2.20;96248.00;;;;8366360;28;20188;-71
2022/12/21 00:37:05;;;;;;;67.63;22.93;;;;;2.20;96253.00;;;;8365501;28;20269;-70
2022/12/21 00:41:11;;;;;;;66.20;23.10;;;;;2.20;96255.00;;;;8365580;28;20192;-71
2022/12/21 00:45:16;;;;;;;72.17;22.50;;;;;2.20;96269.00;;;;8365296;28;20226;-71
2022/12/21 00:49:53;;;;;;;72.80;23.67;;;;;2.20;96273.00;;;;8365687;28;20580;-71
2022/12/21 00:53:58;;;;;;;68.70;22.90;;;;;2.20;96264.00;;;;8364116;28;20196;-70
2022/12/21 00:58:01;;;;;;;82.43;25.93;;;;;2.10;96260.00;;;;8365603;28;20665;-71
2022/12/21 01:02:36;;;;;;;75.27;24.10;;;;;2.10;96236.00;;;;8364205;28;20264;-71
2022/12/21 01:06:40;;;;;;;74.00;22.63;;;;;2.10;96245.00;;;;8364668;28;20637;-72
2022/12/21 01:10:44;;;;;;;71.50;22.97;;;;;2.20;96254.00;;;;8364398;28;20201;-71
2022/12/21 01:14:47;;;;;;;76.00;24.53;;;;;2.20;96240.00;;;;8364790;28;20201;-72
2022/12/21 01:18:52;;;;;;;69.30;23.20;;;;;2.20;96265.00;;;;8364563;28;20686;-72
2022/12/21 01:23:26;;;;;;;75.37;24.57;;;;;2.20;96282.00;;;;8365130;28;20530;-72
2022/12/21 01:27:29;;;;;;;71.97;24.03;;;;;2.20;96302.00;;;;8364522;28;20634;-72
2022/12/21 01:31:32;;;;;;;75.67;25.27;;;;;2.10;96307.00;;;;8364922;28;20210;-72
2022/12/21 01:36:12;;;;;;;83.83;25.87;;;;;2.10;96296.00;;;;8363701;28;20321;-72
2022/12/21 01:40:15;;;;;;;78.67;25.40;;;;;2.10;96316.00;;;;8364345;28;20249;-72
2022/12/21 01:45:00;;;;;;;71.90;24.37;;;;;2.10;96321.00;;;;8363518;28;20191;-72
2022/12/21 01:49:11;;;;;;;78.33;25.07;;;;;2.10;96302.00;;;;8344974;28;20214;-71
2022/12/21 01:53:19;;;;;;;91.03;25.50;;;;;2.20;96312.00;;;;8363024;28;20200;-71
2022/12/21 01:57:23;;;;;;;71.37;23.20;;;;;2.20;96295.00;;;;8364412;28;20253;-71
2022/12/21 02:02:02;;;;;;;80.60;24.87;;;;;2.20;96295.00;;;;8363858;28;20264;-72
2022/12/21 02:06:09;;;;;;;80.50;25.13;;;;;2.20;96298.00;;;;8363191;28;20227;-71
2022/12/21 02:10:15;;;;;;;77.43;24.30;;;;;2.30;96288.00;;;;8364106;28;20672;-71
2022/12/21 02:14:18;;;;;;;67.93;23.10;;;;;2.30;96292.00;;;;8363605;28;20203;-71
2022/12/21 02:18:37;;;;;;;75.83;24.07;;;;;2.20;96286.00;;;;8365941;28;20192;-71
2022/12/21 02:22:56;;;;;;;79.40;23.83;;;;;2.20;96258.00;;;;8369639;28;20629;-71
2022/12/21 02:27:27;;;;;;;84.77;25.20;;;;;2.20;96248.00;;;;8369806;28;20668;-71
2022/12/21 02:31:38;;;;;;;78.33;25.17;;;;;2.30;96254.00;;;;8366118;28;20203;-72
2022/12/21 02:36:15;;;;;;;75.23;23.57;;;;;2.30;96251.00;;;;8369033;28;20252;-71
2022/12/21 02:40:24;;;;;;;85.30;24.20;;;;;2.20;96252.00;;;;8368574;28;20184;-71
2022/12/21 02:44:46;;;;;;;77.40;24.93;;;;;2.20;96261.00;;;;8369496;28;20204;-71
2022/12/21 02:48:57;;;;;;;77.87;24.33;;;;;2.20;96261.00;;;;8368322;28;20225;-71
2022/12/21 02:53:06;;;;;;;89.23;24.43;;;;;2.20;96260.00;;;;8368787;28;20200;-71
2022/12/21 02:57:09;;;;;;;71.63;24.37;;;;;2.10;96269.00;;;;8368175;28;20202;-71
2022/12/21 03:05:46;;;;;;;75.97;24.67;;;;;2.00;96265.00;;;;8305094;28;20217;-72
2022/12/21 03:09:59;;;;;;;78.33;24.13;;;;;1.90;96255.00;;;;8322446;28;20255;-71
2022/12/21 03:14:10;;;;;;;76.90;24.37;;;;;1.90;96251.00;;;;8317477;28;20199;-69
2022/12/21 03:18:24;;;;;;;90.60;25.13;;;;;1.90;96249.00;;;;8318011;28;20199;-69
2022/12/21 03:22:34;;;;;;;75.80;22.30;;;;;2.00;96236.00;;;;8315668;28;20195;-69
2022/12/21 03:26:43;;;;;;;86.20;24.47;;;;;2.00;96230.00;;;;8316087;28;20231;-71
2022/12/21 03:30:51;;;;;;;78.50;24.50;;;;;2.00;96219.00;;;;8325615;28;20198;-71
2022/12/21 03:34:56;;;;;;;77.90;23.70;;;;;2.00;96228.00;;;;8318392;28;20242;-72
2022/12/21 03:39:07;;;;;;;87.70;25.07;;;;;2.00;96220.00;;;;8313466;28;20209;-71
2022/12/21 03:43:17;;;;;;;78.67;24.53;;;;;2.00;96223.00;;;;8318285;28;20255;-71
2022/12/21 03:47:25;;;;;;;86.03;23.93;;;;;2.00;96215.00;;;;8316137;28;20454;-71
2022/12/21 03:51:35;;;;;;;81.13;24.37;;;;;1.90;96232.00;;;;8321065;28;20230;-71
2022/12/21 03:55:42;;;;;;;91.00;25.03;;;;;2.00;96234.00;;;;8331332;28;20253;-71
2022/12/21 03:59:49;;;;;;;80.13;24.13;;;;;2.00;96245.00;;;;8319330;28;20249;-71
2022/12/21 04:03:59;;;;;;;77.97;24.83;;;;;1.90;96230.00;;;;8316839;28;20240;-71
2022/12/21 04:08:02;;;;;;;88.57;23.97;;;;;2.00;96231.00;;;;8309962;28;20290;-69
2022/12/21 04:16:28;;;;;;;80.07;24.90;;;;;2.10;96217.00;;;;8318689;28;20200;-68
2022/12/21 04:20:31;;;;;;;77.53;24.20;;;;;2.10;96222.00;;;;8303784;28;20223;-71
2022/12/21 04:28:57;;;;;;;90.80;25.80;;;;;2.20;96227.00;;;;8307858;28;20293;-72
2022/12/21 04:33:00;;;;;;;72.33;22.90;;;;;2.20;96242.00;;;;8306356;28;20251;-72
2022/12/21 04:41:24;;;;;;;89.97;25.93;;;;;2.20;96239.00;;;;8309837;28;20196;-75
2022/12/21 04:45:29;;;;;;;87.40;24.87;;;;;2.20;96241.00;;;;8313050;28;20201;-78
2022/12/21 04:49:32;;;;;;;79.77;23.70;;;;;2.20;96233.00;;;;8319984;28;20226;-75
2022/12/21 04:53:40;;;;;;;78.33;23.80;;;;;2.30;96222.00;;;;8317942;28;20208;-74
2022/12/21 04:57:44;;;;;;;83.33;23.80;;;;;2.30;96217.00;;;;8321098;28;20220;-78
2022/12/21 05:01:48;;;;;;;93.17;24.77;;;;;2.30;96218.00;;;;8319243;28;20255;-75
2022/12/21 05:05:52;;;;;;;83.70;23.53;;;;;2.30;96221.00;;;;8317391;28;20637;-74
2022/12/21 05:09:55;;;;;;;84.77;24.10;;;;;2.30;96216.00;;;;8310283;28;20273;-74
2022/12/21 05:13:59;;;;;;;79.53;23.87;;;;;2.30;96204.00;;;;8320981;28;20234;-78
2022/12/21 05:18:03;;;;;;;82.23;23.77;;;;;2.30;96197.00;;;;8311057;28;20270;-74
2022/12/21 05:22:06;;;;;;;82.70;25.33;;;;;2.40;96197.00;;;;8314362;28;20197;-77
2022/12/21 05:26:10;;;;;;;92.80;24.17;;;;;2.30;96207.00;;;;8313202;28;20796;-72
2022/12/21 05:30:18;;;;;;;86.90;24.53;;;;;2.30;96210.00;;;;8307713;28;21112;-76
2022/12/21 05:35:14;;;;;;;85.60;23.73;;;;;2.30;96203.00;;;;8304879;28;20663;-72
2022/12/21 05:39:54;;;;;;;79.53;23.77;;;;;2.40;96195.00;;;;8298716;28;20562;-71
2022/12/21 05:44:28;;;;;;;82.37;22.87;;;;;2.30;96198.00;;;;8299048;28;20236;-71
2022/12/21 05:49:05;;;;;;;89.37;24.23;;;;;2.30;96199.00;;;;8297676;28;20224;-70
2022/12/21 05:53:43;;;;;;;69.27;22.30;;;;;2.30;96199.00;;;;8300351;28;20245;-71
2022/12/21 05:58:19;;;;;;;66.50;22.03;;;;;2.30;96204.00;;;;8305078;28;20236;-72
2022/12/21 06:02:56;;;;;;;81.63;24.30;;;;;2.30;96210.00;;;;8304517;28;20343;-72
2022/12/21 06:12:30;;;;;;;74.40;22.20;;;;;2.30;96212.00;;;;8303336;28;20232;-71
2022/12/21 06:17:06;;;;;;;87.13;25.13;;;;;2.30;96214.00;;;;8303907;28;20196;-71
2022/12/21 06:21:40;;;;;;;96.43;26.07;;;;;2.30;96208.00;;;;8305518;28;20578;-72
2022/12/21 06:25:43;;;;;;;90.40;23.27;;;;;2.40;96210.00;;;;8304808;28;20248;-71
2022/12/21 06:30:20;;;;;;;95.03;23.57;;;;;2.40;96218.00;;;;8304277;28;20224;-71
2022/12/21 06:34:58;;;;;;;90.13;26.20;;;;;2.40;96215.00;;;;8302974;28;20198;-72
2022/12/21 06:39:32;;;;;;;82.07;24.80;;;;;2.40;96211.00;;;;8304729;28;20205;-72
2022/12/21 06:44:15;;;;;;;93.03;25.33;;;;;2.40;96209.00;;;;8303392;28;20254;-71
2022/12/21 06:48:49;;;;;;;99.70;27.33;;;;;2.40;96208.00;;;;8301077;28;20669;-71
2022/12/21 06:53:29;;;;;;;91.33;24.27;;;;;2.40;96214.00;;;;8303512;28;20208;-71
2022/12/21 06:58:03;;;;;;;101.50;25.57;;;;;2.40;96214.00;;;;8303518;28;20201;-69
2022/12/21 07:02:41;;;;;;;149.43;27.57;;;;;2.40;96231.00;;;;8304105;28;20228;-68
2022/12/21 07:12:18;;;;;;;83.77;26.30;;;;;2.40;96217.00;;;;8302963;28;20208;-69
2022/12/21 07:16:52;;;;;;;80.83;23.90;;;;;2.40;96219.00;;;;8302249;28;20192;-69
2022/12/21 07:21:43;;;;;;;84.20;24.80;;;;;2.40;96219.00;;;;8303318;28;20319;-69
2022/12/21 07:26:13;;;;;;;95.70;23.57;;;;;2.40;96234.00;;;;8301240;28;20199;-69
2022/12/21 07:30:54;;;;;;;92.03;26.23;;;;;2.50;96228.00;;;;8302945;28;20314;-69
2022/12/21 07:35:31;;;;;;;88.00;23.70;;;;;2.40;96243.00;;;;8302425;28;20207;-69
2022/12/21 07:40:09;;;;;;;85.50;25.53;;;;;2.50;96230.00;;;;8300314;28;20263;-68
2022/12/21 07:44:43;;;;;;;88.83;25.93;;;;;2.50;96237.00;;;;8302255;28;20201;-68
2022/12/21 07:49:21;;;;;;;96.07;25.80;;;;;2.50;96227.00;;;;8301349;28;20227;-68
2022/12/21 07:53:54;;;;;;;96.43;25.13;;;;;2.50;96227.00;;;;8301277;28;20548;-68
2022/12/21 07:58:33;;;;;;;88.97;25.97;;;;;2.50;96236.00;;;;8299862;28;20258;-68
2022/12/21 08:03:07;;;;;;;81.10;23.80;;;;;2.50;96243.00;;;;8299349;28;20271;-69
2022/12/21 08:07:11;;;;;;;80.33;23.83;;;;;2.60;96250.00;;;;8302340;28;20296;-68
2022/12/21 08:11:16;;;;;;;101.57;24.57;;;;;2.60;96240.00;;;;8299975;28;20263;-68
2022/12/21 08:15:57;;;;;;;81.87;24.23;;;;;2.60;96240.00;;;;8301108;28;20234;-68
2022/12/21 08:20:25;;;;;;;92.97;24.70;;;;;2.70;96250.00;;;;8300270;28;20697;-69
2022/12/21 08:25:02;;;;;;;90.90;24.23;;;;;2.60;96242.00;;;;8300397;28;20193;-71
2022/12/21 08:29:39;;;;;;;111.83;23.63;;;;;2.60;96245.00;;;;8299738;28;20224;-71
2022/12/21 08:34:15;;;;;;;85.30;22.20;;;;;2.70;96242.00;;;;8300497;28;20516;-72
2022/12/21 08:38:56;;;;;;;83.83;22.47;;;;;2.70;96240.00;;;;8299568;28;20204;-72
2022/12/21 08:43:11;;;;;;;66.13;21.23;;;;;2.70;96231.00;;;;8301039;28;20186;-72
2022/12/21 08:47:14;;;;;;;78.97;21.67;;;;;2.80;96231.00;;;;8300032;28;20256;-72
2022/12/21 08:51:51;;;;;;;74.53;21.37;;;;;2.80;96236.00;;;;8300141;28;20295;-70
2022/12/21 08:56:29;;;;;;;78.17;21.73;;;;;2.80;96234.00;;;;8300091;28;20583;-72
2022/12/21 09:01:03;;;;;;;75.10;20.17;;;;;2.90;96233.00;;;;8300162;28;20197;-75
2022/12/21 09:05:38;;;;;;;136.77;27.63;;;;;2.90;96222.00;;;;8299661;28;20264;-76
2022/12/21 09:09:41;;;;;;;67.60;20.57;;;;;3.00;96219.00;;;;8300478;28;20225;-77
2022/12/21 09:13:46;;;;;;;89.07;23.03;;;;;3.00;96228.00;;;;8299477;28;20241;-77
2022/12/21 09:18:20;;;;;;;94.27;22.67;;;;;3.10;96227.00;;;;8299363;28;20650;-78
2022/12/21 09:22:56;;;;;;;83.23;26.70;;;;;3.10;96227.00;;;;8299163;28;20572;-78
2022/12/21 09:27:33;;;;;;;172.60;70.43;;;;;3.10;96220.00;;;;8298560;28;20257;-77
2022/12/21 09:32:11;;;;;;;519.77;203.80;;;;;3.10;96227.00;;;;8298527;28;20225;-78
2022/12/21 09:36:46;;;;;;;1153.33;482.63;;;;;3.10;96219.00;;;;8299475;28;20228;-77
2022/12/21 09:41:43;;;;;;;353.13;113.87;;;;;3.20;96219.00;;;;8294727;28;20290;-77
2022/12/21 09:51:22;;;;;;;93.80;36.07;;;;;3.30;96199.00;;;;8297867;28;20224;-78
2022/12/21 09:55:56;;;;;;;98.63;31.17;;;;;3.30;96213.00;;;;8298662;28;20201;-78
2022/12/21 09:59:59;;;;;;;83.93;27.00;;;;;3.30;96202.00;;;;8298715;28;20209;-77
2022/12/21 10:09:51;;;;;;;72.17;23.70;;;;;3.40;96202.00;;;;8328811;28;20219;-80
2022/12/21 10:14:22;;;;;;;74.83;21.27;;;;;3.50;96195.00;;;;8332613;28;20527;-79
2022/12/21 10:19:00;;;;;;;140.80;58.23;;;;;3.60;96184.00;;;;8329309;28;20255;-79
2022/12/21 10:23:33;;;;;;;79.10;35.33;;;;;3.70;96186.00;;;;8330482;28;20291;-79
2022/12/21 10:28:24;;;;;;;69.70;26.93;;;;;3.80;96173.00;;;;8332282;28;20193;-82
2022/12/21 10:32:46;;;;;;;99.17;40.43;;;;;4.00;96180.00;;;;8330907;28;20224;-81
2022/12/21 10:37:18;;;;;;;73.23;25.50;;;;;4.20;96184.00;;;;8329993;28;20830;-80
2022/12/21 10:41:52;;;;;;;80.57;28.47;;;;;4.20;96170.00;;;;8332321;28;20201;-82
2022/12/21 10:46:32;;;;;;;63.73;24.77;;;;;4.20;96173.00;;;;8329159;28;20197;-83
2022/12/21 10:51:13;;;;;;;68.87;20.90;;;;;4.20;96161.00;;;;8335425;28;20263;-83
2022/12/21 10:55:41;;;;;;;68.13;20.90;;;;;4.20;96160.00;;;;8335646;28;20247;-82
2022/12/21 11:00:23;;;;;;;72.77;24.33;;;;;4.20;96166.00;;;;8332135;28;20244;-83
2022/12/21 11:04:58;;;;;;;57.37;20.17;;;;;4.30;96171.00;;;;8336084;28;20614;-82
2022/12/21 11:09:01;;;;;;;65.07;19.73;;;;;4.40;96163.00;;;;8336042;28;20225;-85
2022/12/21 11:13:38;;;;;;;59.13;19.13;;;;;4.50;96159.00;;;;8333774;28;20204;-83
2022/12/21 11:18:18;;;;;;;57.27;18.00;;;;;4.60;96164.00;;;;8331098;28;20197;-82
2022/12/21 11:22:58;;;;;;;60.97;19.77;;;;;4.80;96153.00;;;;8333588;28;20208;-81
2022/12/21 11:27:39;;;;;;;61.07;19.53;;;;;4.80;96150.00;;;;8334914;28;20232;-81
2022/12/21 11:32:09;;;;;;;61.00;19.20;;;;;4.70;96150.00;;;;8335544;28;20615;-79
2022/12/21 11:36:54;;;;;;;57.83;19.17;;;;;4.70;96137.00;;;;8333505;28;20204;-78
2022/12/21 11:41:26;;;;;;;55.07;17.83;;;;;4.60;96125.00;;;;8334362;28;20196;-80
2022/12/21 11:45:56;;;;;;;65.00;19.43;;;;;4.70;96117.00;;;;8335090;28;20263;-79
2022/12/21 11:50:57;;;;;;;56.37;18.67;;;;;4.70;96121.00;;;;8331971;28;20599;-80
2022/12/21 11:55:34;;;;;;;90.50;36.80;;;;;4.70;96123.00;;;;8334293;28;20246;-79
2022/12/21 12:00:14;;;;;;;67.33;19.60;;;;;4.60;96124.00;;;;8334971;28;20535;-79
2022/12/21 12:05:06;;;;;;;70.17;18.93;;;;;4.40;96129.00;;;;8334100;28;20221;-80
2022/12/21 12:09:25;;;;;;;66.63;20.33;;;;;4.40;96117.00;;;;8333160;28;20296;-81
2022/12/21 12:14:00;;;;;;;60.80;18.57;;;;;4.30;96119.00;;;;8333941;28;20247;-80
2022/12/21 12:18:45;;;;;;;69.90;21.10;;;;;4.30;96130.00;;;;8332989;28;20642;-81
2022/12/21 12:23:11;;;;;;;71.30;20.07;;;;;4.20;96115.00;;;;8334146;28;20216;-83
2022/12/21 12:27:43;;;;;;;70.77;20.80;;;;;4.10;96114.00;;;;8332191;28;20195;-85
2022/12/21 12:32:17;;;;;;;67.47;20.60;;;;;4.10;96113.00;;;;8333214;28;20603;-83
2022/12/21 12:36:53;;;;;;;82.47;22.97;;;;;4.10;96102.00;;;;8332745;28;20333;-82
2022/12/21 12:41:30;;;;;;;75.67;22.47;;;;;4.10;96114.00;;;;8332620;28;20208;-82
2022/12/21 12:45:42;;;;;;;82.87;22.33;;;;;4.20;96105.00;;;;8331725;28;20243;-82
2022/12/21 12:50:15;;;;;;;102.53;22.43;;;;;4.20;96110.00;;;;8333749;28;20209;-83
2022/12/21 12:54:50;;;;;;;136.20;24.27;;;;;4.30;96120.00;;;;8332850;28;20193;-85
2022/12/21 12:59:03;;;;;;;83.70;22.03;;;;;4.40;96111.00;;;;8332768;28;20203;-86
2022/12/21 13:03:27;;;;;;;81.63;22.20;;;;;4.40;96109.00;;;;8332062;28;20217;-80
2022/12/21 13:07:49;;;;;;;91.17;23.13;;;;;4.40;96118.00;;;;8329228;28;20239;-82
2022/12/21 13:17:38;;;;;;;72.17;21.50;;;;;4.40;96119.00;;;;8332137;28;20566;-83
2022/12/21 13:22:07;;;;;;;81.00;20.83;;;;;4.50;96112.00;;;;8332680;28;20198;-81
2022/12/21 13:26:14;;;;;;;66.50;21.90;;;;;4.50;96119.00;;;;8331670;28;20196;-81
2022/12/21 13:30:47;;;;;;;79.03;21.93;;;;;4.40;96112.00;;;;8332948;28;20217;-80
2022/12/21 13:35:28;;;;;;;68.20;20.50;;;;;4.40;96105.00;;;;8331959;28;20262;-81
2022/12/21 13:39:59;;;;;;;82.80;23.13;;;;;4.30;96108.00;;;;8331477;28;20535;-83
2022/12/21 13:44:40;;;;;;;97.37;22.60;;;;;4.30;96112.00;;;;8330670;28;20189;-81
2022/12/21 13:49:17;;;;;;;92.60;23.77;;;;;4.30;96107.00;;;;8331905;28;20211;-84
2022/12/21 13:53:53;;;;;;;80.53;21.87;;;;;4.50;96113.00;;;;8330756;28;20232;-81
2022/12/21 13:58:30;;;;;;;80.57;23.47;;;;;4.50;96113.00;;;;8332230;28;20645;-81
2022/12/21 14:03:11;;;;;;;81.67;23.03;;;;;4.60;96113.00;;;;8331450;28;20197;-82
2022/12/21 14:07:54;;;;;;;77.23;23.20;;;;;4.50;96112.00;;;;8331370;28;20210;-84
2022/12/21 14:17:01;;;;;;;97.57;25.37;;;;;4.40;96112.00;;;;8336807;28;20197;-84
2022/12/21 14:21:33;;;;;;;93.03;24.10;;;;;4.30;96103.00;;;;8337222;28;20236;-84
2022/12/21 14:25:40;;;;;;;102.67;24.97;;;;;4.20;96096.00;;;;8337721;28;20205;-81
2022/12/21 14:29:44;;;;;;;85.90;22.57;;;;;4.20;96097.00;;;;8336475;28;20196;-80
2022/12/21 14:33:52;;;;;;;113.33;26.60;;;;;4.10;96101.00;;;;8337780;28;20727;-78
2022/12/21 14:38:27;;;;;;;95.97;24.10;;;;;4.00;96089.00;;;;8337299;28;20205;-77
2022/12/21 14:43:02;;;;;;;99.03;23.43;;;;;4.00;96098.00;;;;8336584;28;20195;-76
2022/12/21 14:47:36;;;;;;;108.27;29.30;;;;;3.90;96085.00;;;;8337251;28;20507;-75
2022/12/21 14:51:54;;;;;;;97.43;23.97;;;;;4.00;96088.00;;;;8332795;28;20673;-75
2022/12/21 14:56:05;;;;;;;108.30;27.23;;;;;4.00;96085.00;;;;8335636;28;20626;-75
2022/12/21 15:00:32;;;;;;;99.27;25.27;;;;;4.00;96089.00;;;;8334074;28;20228;-74
2022/12/21 15:04:36;;;;;;;155.03;28.23;;;;;4.00;96099.00;;;;8337208;28;20223;-75
2022/12/21 15:08:44;;;;;;;122.80;26.40;;;;;4.00;96105.00;;;;8335664;28;20274;-74
2022/12/21 15:13:00;;;;;;;102.67;26.70;;;;;4.00;96103.00;;;;8336141;28;20335;-74
2022/12/21 15:17:06;;;;;;;125.77;26.27;;;;;4.00;96107.00;;;;8335518;28;20205;-74
2022/12/21 15:21:38;;;;;;;130.27;27.57;;;;;4.00;96100.00;;;;8334993;28;20631;-73
2022/12/21 15:25:43;;;;;;;139.87;30.77;;;;;4.10;96107.00;;;;8335176;28;20205;-73
2022/12/21 15:29:48;;;;;;;200.77;33.43;;;;;4.10;96103.00;;;;8335578;28;20204;-73
2022/12/21 15:34:24;;;;;;;172.33;33.93;;;;;4.10;96102.00;;;;8334751;28;20234;-72
2022/12/21 15:38:57;;;;;;;180.23;28.20;;;;;4.00;96093.00;;;;8335452;28;20246;-72
2022/12/21 15:43:40;;;;;;;229.47;28.47;;;;;3.90;96099.00;;;;8335943;28;20225;-72
2022/12/21 15:48:14;;;;;;;133.00;25.60;;;;;3.90;96098.00;;;;8335577;28;20255;-72
2022/12/21 15:52:48;;;;;;;140.27;26.43;;;;;3.80;96095.00;;;;8334312;28;20342;-72
2022/12/21 15:57:25;;;;;;;168.83;32.63;;;;;3.80;96090.00;;;;8334452;28;20645;-72
2022/12/21 16:02:08;;;;;;;193.93;31.83;;;;;3.80;96098.00;;;;8334436;28;20197;-72
2022/12/21 16:06:44;;;;;;;138.50;27.60;;;;;3.80;96095.00;;;;8335125;28;20751;-71
2022/12/21 16:21:34;;;;;;;254.10;31.50;;;;;3.80;96099.00;;;;8332179;28;20239;-70
2022/12/21 16:25:38;;;;;;;160.70;28.50;;;;;3.90;96110.00;;;;8334341;28;20623;-70
2022/12/21 16:29:51;;;;;;;263.23;31.83;;;;;3.90;96107.00;;;;8333843;28;20196;-70
2022/12/21 16:34:24;;;;;;;795.23;183.30;;;;;3.90;96116.00;;;;8332236;28;20223;-72
2022/12/21 16:39:01;;;;;;;245.40;36.20;;;;;3.90;96105.00;;;;8332723;28;20700;-72
2022/12/21 16:43:06;;;;;;;205.87;36.20;;;;;3.90;96102.00;;;;8332393;28;20197;-73
2022/12/21 16:47:25;;;;;;;436.53;42.17;;;;;3.90;96110.00;;;;8332278;28;20181;-72
2022/12/21 16:52:01;;;;;;;561.10;47.17;;;;;3.90;96107.00;;;;8331557;28;20212;-72
2022/12/21 16:56:38;;;;;;;428.60;38.83;;;;;3.90;96103.00;;;;8330935;28;20200;-73
2022/12/21 17:01:22;;;;;;;353.83;36.67;;;;;3.80;96109.00;;;;8331352;28;20201;-71
2022/12/21 17:05:50;;;;;;;292.47;34.20;;;;;3.90;96099.00;;;;8332590;28;20220;-71
2022/12/21 17:10:26;;;;;;;292.37;35.90;;;;;3.80;96102.00;;;;8332517;28;20577;-71
2022/12/21 17:14:32;;;;;;;369.73;35.33;;;;;3.80;96106.00;;;;8332336;28;20229;-72
2022/12/21 17:19:06;;;;;;;205.57;30.73;;;;;3.80;96108.00;;;;8331846;28;20205;-72
2022/12/21 17:23:53;;;;;;;201.50;30.63;;;;;3.80;96115.00;;;;8332565;28;20257;-71
2022/12/21 17:27:58;;;;;;;509.93;47.40;;;;;3.80;96112.00;;;;8332274;28;20208;-72
2022/12/21 17:32:32;;;;;;;214.63;33.20;;;;;3.90;96121.00;;;;8331546;28;20224;-71
2022/12/21 17:37:10;;;;;;;266.60;34.23;;;;;3.90;96119.00;;;;8331120;28;20208;-72
2022/12/21 17:41:47;;;;;;;479.90;44.90;;;;;3.90;96118.00;;;;8332227;28;20194;-71
2022/12/21 17:46:21;;;;;;;251.90;33.93;;;;;3.90;96119.00;;;;8331744;28;20200;-72
2022/12/21 17:50:58;;;;;;;251.33;32.50;;;;;3.90;96118.00;;;;8330298;28;20196;-72
2022/12/21 17:55:02;;;;;;;192.87;32.00;;;;;3.80;96108.00;;;;8331585;28;20258;-72
2022/12/21 17:59:36;;;;;;;274.80;35.97;;;;;3.80;96106.00;;;;8330496;28;20212;-72
2022/12/21 18:04:14;;;;;;;406.57;39.13;;;;;3.80;96092.00;;;;8331495;28;20227;-71
2022/12/21 18:08:18;;;;;;;1999.90;904.30;;;;;3.80;96126.00;;;;8330865;28;20251;-71
2022/12/21 18:12:21;;;;;;;664.53;162.93;;;;;3.80;96114.00;;;;8331911;28;20630;-71
2022/12/21 18:16:59;;;;;;;580.07;90.30;;;;;3.80;96121.00;;;;8330504;28;20200;-71
2022/12/21 18:21:04;;;;;;;1200.87;193.57;;;;;3.80;96104.00;;;;8331575;28;20627;-71
2022/12/21 18:25:37;;;;;;;806.50;112.87;;;;;3.90;96094.00;;;;8331154;28;20195;-72
2022/12/21 18:30:15;;;;;;;904.63;164.07;;;;;3.80;96087.00;;;;8330905;28;20200;-72
2022/12/21 18:34:49;;;;;;;1156.27;181.43;;;;;3.90;96085.00;;;;8328757;28;20258;-72
2022/12/21 18:39:27;;;;;;;1999.90;999.90;;;;;3.80;96090.00;;;;8331867;28;20227;-72
2022/12/21 18:43:33;;;;;;;1999.90;978.43;;;;;3.90;96093.00;;;;8330272;28;20705;-71
2022/12/21 18:48:09;;;;;;;1049.67;142.30;;;;;3.90;96089.00;;;;8330528;28;20201;-71
2022/12/21 18:52:14;;;;;;;574.23;92.77;;;;;3.90;96095.00;;;;8330175;28;20190;-71
2022/12/21 18:56:50;;;;;;;1181.73;144.90;;;;;4.00;96096.00;;;;8331045;28;20254;-71
2022/12/21 19:01:25;;;;;;;570.00;102.27;;;;;4.00;96089.00;;;;8333288;28;20266;-72
2022/12/21 19:05:28;;;;;;;296.33;45.77;;;;;4.00;96082.00;;;;8336291;28;20214;-72
2022/12/21 19:10:06;;;;;;;550.93;74.47;;;;;3.90;96075.00;;;;8336385;28;20197;-72
2022/12/21 19:14:16;;;;;;;258.43;56.67;;;;;3.90;96076.00;;;;8336403;28;20255;-72
2022/12/21 19:18:44;;;;;;;423.57;80.17;;;;;3.90;96083.00;;;;8335073;28;20200;-72
2022/12/21 19:23:24;;;;;;;689.43;59.57;;;;;3.90;96079.00;;;;8336157;28;20221;-72
2022/12/21 19:28:01;;;;;;;437.10;39.47;;;;;3.90;96080.00;;;;8335921;28;20244;-72
2022/12/21 19:32:34;;;;;;;409.30;36.87;;;;;4.00;96083.00;;;;8336121;28;20254;-72
2022/12/21 19:37:19;;;;;;;575.40;45.87;;;;;4.00;96089.00;;;;8334779;28;20197;-71
2022/12/21 19:41:47;;;;;;;567.87;41.80;;;;;4.00;96088.00;;;;8335150;28;20251;-71
2022/12/21 19:46:23;;;;;;;841.10;54.70;;;;;3.90;96077.00;;;;8335703;28;20255;-71
2022/12/21 19:51:01;;;;;;;219.57;29.20;;;;;3.90;96081.00;;;;8334140;28;20245;-71
2022/12/21 19:55:06;;;;;;;577.57;40.37;;;;;3.90;96060.00;;;;8335427;28;20612;-71
2022/12/21 19:59:17;;;;;;;232.43;29.73;;;;;4.00;96068.00;;;;8334145;28;20205;-71
2022/12/21 20:03:45;;;;;;;718.57;49.73;;;;;3.90;96065.00;;;;8333870;28;20286;-71
2022/12/21 20:07:49;;;;;;;293.27;31.87;;;;;3.90;96064.00;;;;8333906;28;20193;-71
2022/12/21 20:11:55;;;;;;;453.83;37.77;;;;;4.00;96071.00;;;;8333051;28;20252;-71
2022/12/21 20:15:58;;;;;;;724.70;50.83;;;;;4.00;96068.00;;;;8333670;28;20288;-71
2022/12/21 20:20:36;;;;;;;678.60;45.97;;;;;4.00;96063.00;;;;8334009;28;20216;-71
2022/12/21 20:25:14;;;;;;;299.33;32.20;;;;;4.00;96054.00;;;;8334085;28;20298;-71
2022/12/21 20:29:50;;;;;;;494.43;40.00;;;;;4.00;96051.00;;;;8329303;28;20574;-72
2022/12/21 20:33:54;;;;;;;613.03;46.83;;;;;4.00;96041.00;;;;8332891;28;20201;-71
2022/12/21 20:37:57;;;;;;;641.43;49.47;;;;;4.00;96047.00;;;;8333135;28;20202;-71
2022/12/21 20:46:28;;;;;;;616.97;44.87;;;;;4.00;96016.00;;;;8332483;28;20193;-71
2022/12/21 20:50:55;;;;;;;286.63;31.30;;;;;4.00;96005.00;;;;8333458;28;20580;-71
2022/12/21 21:00:10;;;;;;;426.30;36.13;;;;;4.00;96002.00;;;;8334268;28;20199;-72
2022/12/21 21:04:15;;;;;;;594.47;43.00;;;;;4.10;96007.00;;;;8332526;28;20622;-72
2022/12/21 21:08:19;;;;;;;615.60;41.63;;;;;4.10;96021.00;;;;8331508;28;20240;-72
2022/12/21 21:12:22;;;;;;;598.17;40.40;;;;;4.00;96029.00;;;;8332037;28;20208;-72
2022/12/21 21:16:58;;;;;;;483.70;39.43;;;;;3.90;96026.00;;;;8331745;28;20205;-72
2022/12/21 21:25:26;;;;;;;645.17;46.70;;;;;3.80;96013.00;;;;8330818;28;20274;-72
2022/12/21 21:29:29;;;;;;;660.73;47.33;;;;;3.80;96004.00;;;;8331827;28;20205;-71
2022/12/21 21:34:03;;;;;;;745.47;50.97;;;;;3.80;96006.00;;;;8330969;28;20278;-71
2022/12/21 21:42:32;;;;;;;526.77;42.10;;;;;3.90;96009.00;;;;8330765;28;20236;-71
2022/12/21 21:46:36;;;;;;;588.33;41.50;;;;;4.00;96013.00;;;;8331523;28;20198;-71
2022/12/21 21:50:39;;;;;;;757.13;51.63;;;;;3.90;96013.00;;;;8331244;28;20204;-71
2022/12/21 21:54:44;;;;;;;919.53;59.17;;;;;3.90;96021.00;;;;8330877;28;20222;-71
2022/12/21 21:58:47;;;;;;;852.47;58.40;;;;;3.80;96013.00;;;;8330289;28;20193;-71
2022/12/21 22:02:52;;;;;;;759.07;55.83;;;;;3.80;96014.00;;;;8331444;28;20664;-71
2022/12/21 22:07:26;;;;;;;629.27;48.63;;;;;3.80;96017.00;;;;8331372;28;20648;-71
2022/12/21 22:11:31;;;;;;;859.10;56.67;;;;;3.90;96028.00;;;;8331229;28;20209;-71
2022/12/21 22:15:36;;;;;;;778.07;52.70;;;;;3.90;96023.00;;;;8330587;28;20269;-71
2022/12/21 22:33:31;;;;;;;263.43;28.97;;;;;4.00;96008.00;;;;8331313;28;20208;-71
2022/12/21 22:51:27;;;;;;;469.90;31.33;;;;;4.30;95990.00;;;;8335410;28;20299;-71
2022/12/21 22:55:33;;;;;;;496.80;36.40;;;;;4.30;95978.00;;;;8336346;28;20240;-71
2022/12/21 22:59:43;;;;;;;528.00;35.03;;;;;4.40;95964.00;;;;8335867;28;20189;-71
2022/12/21 23:03:47;;;;;;;144.70;24.27;;;;;4.40;95961.00;;;;8335990;28;20562;-71
2022/12/21 23:07:52;;;;;;;197.13;26.87;;;;;4.40;95963.00;;;;8335700;28;20197;-71
2022/12/21 23:16:55;;;;;;;678.37;46.27;;;;;4.40;95961.00;;;;8335883;28;20213;-71
2022/12/21 23:29:42;;;;;;;146.47;26.57;;;;;4.40;95941.00;;;;8335498;28;20231;-70
2022/12/21 23:43:14;;;;;;;163.97;27.87;;;;;4.30;95923.00;;;;8334960;28;20251;-71
